createdAt,value
2023-05-14T00:00:56.428Z,48.18
2023-05-14T00:01:56.412Z,49.47
2023-05-14T00:02:56.600Z,52.53
2023-05-14T00:03:56.500Z,45.28
2023-05-14T00:04:56.390Z,51.88
2023-05-14T00:05:56.375Z,53.66
2023-05-14T00:06:56.372Z,49.95
2023-05-14T00:07:56.369Z,42.70
2023-05-14T00:08:56.369Z,43.51
2023-05-14T00:09:56.360Z,47.05
2023-05-14T00:10:56.352Z,46.08
2023-05-14T00:11:56.330Z,40.93
2023-05-14T00:12:56.321Z,46.08
2023-05-14T00:13:56.320Z,51.24
2023-05-14T00:14:56.305Z,48.18
2023-05-14T00:15:56.386Z,51.56
2023-05-14T00:16:56.301Z,50.43
2023-05-14T00:17:56.309Z,47.37
2023-05-14T00:18:56.309Z,40.44
2023-05-14T00:19:56.269Z,41.73
2023-05-14T00:22:56.866Z,37.87
2023-05-14T00:23:56.851Z,40.12
2023-05-14T00:24:56.842Z,37.87
2023-05-14T00:25:56.841Z,43.67
2023-05-14T00:26:56.825Z,42.86
2023-05-14T00:27:56.826Z,46.57
2023-05-14T00:28:56.820Z,48.66
2023-05-14T00:29:56.811Z,45.92
2023-05-14T00:30:56.811Z,45.92
2023-05-14T00:31:56.783Z,48.82
2023-05-14T00:32:56.922Z,46.25
2023-05-14T00:33:56.768Z,50.60
2023-05-14T00:34:56.770Z,48.18
2023-05-14T00:35:56.750Z,50.60
2023-05-14T00:36:56.739Z,45.44
2023-05-14T00:37:56.739Z,44.63
2023-05-14T00:38:56.723Z,39.80
2023-05-14T00:39:56.728Z,37.22
2023-05-14T00:40:56.712Z,41.41
2023-05-14T00:41:56.707Z,40.28
2023-05-14T00:42:56.732Z,44.96
2023-05-14T00:43:56.684Z,38.19
2023-05-14T00:44:56.685Z,41.57
2023-05-14T00:45:56.682Z,48.34
2023-05-14T00:46:56.732Z,52.37
2023-05-14T00:47:56.708Z,46.41
2023-05-14T00:48:56.660Z,50.92
2023-05-14T00:49:56.635Z,42.86
2023-05-14T00:50:56.633Z,45.44
2023-05-14T00:51:56.617Z,41.57
2023-05-14T00:52:56.617Z,38.83
2023-05-14T00:53:56.612Z,49.79
2023-05-14T00:54:56.635Z,47.37
2023-05-14T00:55:56.597Z,40.93
2023-05-14T00:56:56.580Z,38.99
2023-05-14T00:57:56.574Z,47.53
2023-05-14T00:58:56.563Z,41.25
2023-05-14T00:59:56.573Z,43.83
2023-05-14T01:00:56.589Z,46.25
2023-05-14T01:01:56.538Z,45.60
2023-05-14T01:02:56.630Z,38.35
2023-05-14T01:03:56.686Z,39.64
2023-05-14T01:04:56.530Z,46.41
2023-05-14T01:05:56.503Z,41.09
2023-05-14T01:06:56.504Z,39.96
2023-05-14T01:07:56.486Z,41.41
2023-05-14T01:08:56.482Z,42.38
2023-05-14T01:09:56.478Z,41.25
2023-05-14T01:10:56.469Z,41.57
2023-05-14T01:11:56.465Z,42.38
2023-05-14T01:12:56.469Z,46.41
2023-05-14T01:13:57.547Z,40.77
2023-05-14T01:14:57.540Z,37.54
2023-05-14T01:15:57.534Z,38.35
2023-05-14T01:16:57.546Z,43.99
2023-05-14T01:17:57.516Z,38.99
2023-05-14T01:18:57.624Z,39.64
2023-05-14T01:19:57.487Z,43.67
2023-05-14T01:20:57.479Z,43.67
2023-05-14T01:21:57.482Z,46.08
2023-05-14T01:22:57.475Z,39.48
2023-05-14T01:23:57.479Z,43.67
2023-05-14T01:24:57.447Z,40.77
2023-05-14T01:25:57.442Z,39.96
2023-05-14T01:26:57.438Z,40.28
2023-05-14T01:27:57.419Z,48.18
2023-05-14T01:28:57.430Z,42.06
2023-05-14T01:29:57.408Z,39.32
2023-05-14T01:30:57.394Z,37.38
2023-05-14T01:31:57.464Z,38.19
2023-05-14T01:32:57.394Z,37.38
2023-05-14T01:33:57.370Z,38.19
2023-05-14T01:34:58.002Z,41.25
2023-05-14T01:35:57.371Z,44.15
2023-05-14T01:36:57.378Z,43.02
2023-05-14T01:37:57.346Z,43.99
2023-05-14T01:38:57.328Z,44.15
2023-05-14T01:39:57.889Z,40.12
2023-05-14T01:40:57.345Z,45.44
2023-05-14T01:41:57.313Z,40.93
2023-05-14T01:42:57.333Z,43.67
2023-05-14T01:43:57.314Z,41.41
2023-05-14T01:44:57.328Z,40.61
2023-05-14T01:45:57.331Z,39.96
2023-05-14T01:46:57.265Z,40.77
2023-05-14T01:47:57.297Z,44.15
2023-05-14T01:48:57.252Z,46.08
2023-05-14T01:49:57.238Z,43.02
2023-05-14T01:50:57.267Z,41.41
2023-05-14T01:51:57.236Z,45.44
2023-05-14T01:52:57.222Z,38.99
2023-05-14T01:53:57.210Z,42.54
2023-05-14T01:54:57.199Z,38.99
2023-05-14T01:55:57.203Z,40.61
2023-05-14T01:56:57.211Z,37.54
2023-05-14T01:57:57.176Z,37.38
2023-05-14T01:58:57.215Z,39.96
2023-05-14T01:59:57.164Z,42.54
2023-05-14T02:00:57.172Z,48.82
2023-05-14T02:01:57.212Z,42.38
2023-05-14T02:02:57.168Z,42.86
2023-05-14T02:03:57.176Z,43.02
2023-05-14T02:04:57.115Z,49.63
2023-05-14T02:05:57.128Z,43.51
2023-05-14T02:06:57.096Z,45.12
2023-05-14T02:07:57.096Z,44.15
2023-05-14T02:08:57.097Z,46.08
2023-05-14T02:09:57.078Z,46.41
2023-05-14T02:10:57.077Z,44.79
2023-05-14T02:11:57.080Z,44.15
2023-05-14T02:12:57.054Z,44.31
2023-05-14T02:13:57.075Z,39.96
2023-05-14T02:14:57.047Z,41.73
2023-05-14T02:15:57.047Z,41.25
2023-05-14T02:16:57.032Z,40.61
2023-05-14T02:17:57.133Z,39.80
2023-05-14T02:18:57.037Z,38.35
2023-05-14T02:19:57.018Z,43.51
2023-05-14T02:20:56.995Z,39.96
2023-05-14T02:21:56.997Z,41.41
2023-05-14T02:22:56.977Z,46.73
2023-05-14T02:23:56.973Z,43.02
2023-05-14T02:24:56.970Z,46.08
2023-05-14T02:25:56.964Z,41.89
2023-05-14T02:26:56.957Z,46.73
2023-05-14T02:27:56.938Z,43.83
2023-05-14T02:28:56.950Z,47.86
2023-05-14T02:29:56.929Z,43.02
2023-05-14T02:30:56.922Z,48.18
2023-05-14T02:31:57.152Z,46.73
2023-05-14T02:32:56.965Z,44.79
2023-05-14T02:33:56.901Z,48.82
2023-05-14T02:34:56.901Z,40.44
2023-05-14T02:35:56.891Z,40.77
2023-05-14T02:36:56.883Z,39.64
2023-05-14T02:37:56.871Z,40.12
2023-05-14T02:38:57.854Z,49.63
2023-05-14T02:39:56.862Z,41.25
2023-05-14T02:40:56.863Z,42.70
2023-05-14T02:41:56.849Z,41.57
2023-05-14T02:42:56.832Z,39.96
2023-05-14T02:43:56.832Z,43.02
2023-05-14T02:44:56.823Z,41.57
2023-05-14T02:45:56.819Z,49.95
2023-05-14T02:46:56.838Z,50.92
2023-05-14T02:47:56.816Z,48.02
2023-05-14T02:48:56.776Z,41.09
2023-05-14T02:49:56.774Z,43.02
2023-05-14T02:50:56.766Z,46.25
2023-05-14T02:51:56.772Z,40.61
2023-05-14T02:52:56.744Z,44.31
2023-05-14T02:53:56.741Z,43.02
2023-05-14T02:54:56.733Z,45.12
2023-05-14T02:55:56.746Z,50.27
2023-05-14T02:56:56.728Z,44.63
2023-05-14T02:57:57.465Z,42.06
2023-05-14T02:58:56.723Z,42.38
2023-05-14T02:59:56.692Z,42.38
2023-05-14T03:00:56.701Z,40.77
2023-05-14T03:01:56.731Z,39.64
2023-05-14T03:02:56.720Z,41.57
2023-05-14T03:03:56.673Z,40.77
2023-05-14T03:04:56.668Z,41.89
2023-05-14T03:05:56.673Z,46.57
2023-05-14T03:06:56.643Z,44.15
2023-05-14T03:07:56.637Z,49.79
2023-05-14T03:08:56.637Z,43.02
2023-05-14T03:09:56.630Z,42.54
2023-05-14T03:10:56.611Z,40.77
2023-05-14T03:11:56.599Z,45.60
2023-05-14T03:12:56.611Z,47.70
2023-05-14T03:13:56.581Z,44.31
2023-05-14T03:14:56.587Z,43.34
2023-05-14T03:15:56.565Z,43.67
2023-05-14T03:16:56.609Z,40.93
2023-05-14T03:17:56.616Z,41.41
2023-05-14T03:18:56.573Z,40.77
2023-05-14T03:19:56.559Z,43.67
2023-05-14T03:20:56.539Z,44.31
2023-05-14T03:21:56.526Z,49.47
2023-05-14T03:22:56.534Z,50.43
2023-05-14T03:23:57.460Z,46.08
2023-05-14T03:24:56.499Z,47.21
2023-05-14T03:25:56.492Z,51.08
2023-05-14T03:26:56.500Z,41.41
2023-05-14T03:27:56.471Z,44.63
2023-05-14T03:28:56.479Z,39.96
2023-05-14T03:29:56.454Z,40.12
2023-05-14T03:30:56.486Z,41.41
2023-05-14T03:31:56.485Z,46.89
2023-05-14T03:32:56.482Z,45.76
2023-05-14T03:33:56.432Z,43.99
2023-05-14T03:34:57.042Z,42.54
2023-05-14T03:35:57.036Z,41.09
2023-05-14T03:36:56.397Z,50.92
2023-05-14T03:37:56.414Z,49.79
2023-05-14T03:38:56.381Z,49.63
2023-05-14T03:39:56.375Z,48.02
2023-05-14T03:40:56.377Z,41.57
2023-05-14T03:41:56.366Z,42.54
2023-05-14T03:42:56.355Z,47.86
2023-05-14T03:43:57.038Z,44.15
2023-05-14T03:44:56.346Z,46.89
2023-05-14T03:45:56.353Z,40.93
2023-05-14T03:46:56.333Z,41.41
2023-05-14T03:47:56.354Z,39.96
2023-05-14T03:48:56.359Z,52.21
2023-05-14T03:49:56.298Z,42.70
2023-05-14T03:50:56.300Z,45.12
2023-05-14T03:51:56.280Z,41.09
2023-05-14T03:52:56.262Z,41.09
2023-05-14T03:53:57.257Z,41.57
2023-05-14T03:54:56.278Z,44.63
2023-05-14T03:55:56.249Z,42.38
2023-05-14T03:56:56.316Z,45.12
2023-05-14T03:57:56.232Z,52.53
2023-05-14T03:58:56.235Z,40.93
2023-05-14T03:59:56.247Z,40.61
2023-05-14T04:00:56.261Z,43.83
2023-05-14T04:01:56.206Z,41.41
2023-05-14T04:02:56.255Z,43.83
2023-05-14T04:03:56.246Z,49.31
2023-05-14T04:04:56.325Z,42.54
2023-05-14T04:05:56.240Z,43.51
2023-05-14T04:06:56.168Z,44.96
2023-05-14T04:07:56.160Z,50.92
2023-05-14T04:08:56.151Z,49.15
2023-05-14T04:09:56.138Z,41.25
2023-05-14T04:10:56.141Z,52.21
2023-05-14T04:11:56.151Z,48.66
2023-05-14T04:12:56.126Z,42.70
2023-05-14T04:13:56.139Z,44.31
2023-05-14T04:14:56.096Z,46.41
2023-05-14T04:15:56.164Z,47.37
2023-05-14T04:16:56.092Z,40.12
2023-05-14T04:17:56.090Z,45.12
2023-05-14T04:18:56.094Z,43.83
2023-05-14T04:19:57.041Z,43.18
2023-05-14T04:20:56.043Z,45.12
2023-05-14T04:21:56.045Z,45.28
2023-05-14T04:22:56.035Z,44.79
2023-05-14T04:23:56.023Z,48.66
2023-05-14T04:24:56.022Z,45.12
2023-05-14T04:25:56.971Z,44.63
2023-05-14T04:26:56.009Z,49.63
2023-05-14T04:27:55.993Z,42.22
2023-05-14T04:28:55.993Z,43.67
2023-05-14T04:29:55.973Z,41.57
2023-05-14T04:30:56.975Z,47.70
2023-05-14T04:31:56.042Z,43.99
2023-05-14T04:32:55.991Z,43.02
2023-05-14T04:33:55.945Z,44.31
2023-05-14T04:34:55.956Z,44.31
2023-05-14T04:35:55.936Z,49.47
2023-05-14T04:36:55.931Z,44.79
2023-05-14T04:37:55.911Z,46.57
2023-05-14T04:38:55.907Z,43.51
2023-05-14T04:39:55.913Z,45.92
2023-05-14T04:40:55.883Z,41.57
2023-05-14T04:41:55.884Z,43.34
2023-05-14T04:42:55.877Z,44.47
2023-05-14T04:43:55.861Z,45.12
2023-05-14T04:44:55.856Z,42.38
2023-05-14T04:45:56.499Z,50.27
2023-05-14T04:46:55.857Z,49.31
2023-05-14T04:47:56.609Z,51.08
2023-05-14T04:48:55.838Z,41.09
2023-05-14T04:49:55.822Z,47.70
2023-05-14T04:50:55.809Z,48.82
2023-05-14T04:51:56.470Z,52.05
2023-05-14T04:52:55.812Z,46.25
2023-05-14T04:53:55.791Z,41.89
2023-05-14T04:54:55.771Z,47.05
2023-05-14T04:55:55.779Z,47.37
2023-05-14T04:56:55.760Z,43.67
2023-05-14T04:57:55.749Z,42.06
2023-05-14T04:58:55.741Z,43.34
2023-05-14T04:59:55.733Z,41.41
2023-05-14T05:00:55.759Z,43.83
2023-05-14T05:01:55.735Z,49.15
2023-05-14T05:02:55.781Z,43.18
2023-05-14T05:03:55.728Z,47.86
2023-05-14T05:04:55.706Z,44.63
2023-05-14T05:05:55.686Z,43.34
2023-05-14T05:06:55.695Z,50.11
2023-05-14T05:07:55.686Z,51.72
2023-05-14T05:08:55.659Z,53.66
2023-05-14T05:09:55.669Z,52.37
2023-05-14T05:10:55.670Z,48.34
2023-05-14T05:11:55.668Z,46.57
2023-05-14T05:12:55.648Z,46.73
2023-05-14T05:13:56.478Z,45.60
2023-05-14T05:14:55.618Z,43.67
2023-05-14T05:15:55.624Z,41.73
2023-05-14T05:16:55.612Z,48.18
2023-05-14T05:17:55.603Z,43.02
2023-05-14T05:18:55.625Z,48.34
2023-05-14T05:19:55.580Z,41.73
2023-05-14T05:20:55.575Z,44.79
2023-05-14T05:21:55.564Z,42.54
2023-05-14T05:22:55.556Z,47.70
2023-05-14T05:23:55.558Z,52.85
2023-05-14T05:24:55.539Z,44.79
2023-05-14T05:25:55.526Z,48.50
2023-05-14T05:26:55.526Z,47.21
2023-05-14T05:27:55.526Z,41.25
2023-05-14T05:28:55.516Z,40.93
2023-05-14T05:29:55.528Z,42.38
2023-05-14T05:30:55.516Z,49.79
2023-05-14T05:31:55.617Z,46.89
2023-05-14T05:32:55.518Z,42.54
2023-05-14T05:33:55.498Z,41.41
2023-05-14T05:34:55.467Z,43.67
2023-05-14T05:35:55.465Z,41.89
2023-05-14T05:36:55.452Z,47.05
2023-05-14T05:37:55.455Z,41.73
2023-05-14T05:38:55.453Z,39.16
2023-05-14T05:39:56.065Z,40.93
2023-05-14T05:40:55.414Z,43.18
2023-05-14T05:41:55.417Z,51.88
2023-05-14T05:42:55.405Z,50.92
2023-05-14T05:43:55.383Z,46.41
2023-05-14T05:44:55.441Z,42.06
2023-05-14T05:45:55.383Z,42.38
2023-05-14T05:46:55.412Z,49.47
2023-05-14T05:47:55.417Z,45.12
2023-05-14T05:48:55.344Z,40.77
2023-05-14T05:49:55.326Z,43.34
2023-05-14T05:50:55.335Z,48.18
2023-05-14T05:51:55.371Z,45.60
2023-05-14T05:52:55.322Z,43.51
2023-05-14T05:53:55.299Z,46.08
2023-05-14T05:54:55.298Z,47.21
2023-05-14T05:55:55.292Z,48.66
2023-05-14T05:56:55.284Z,42.06
2023-05-14T05:57:55.280Z,44.79
2023-05-14T05:58:55.296Z,50.60
2023-05-14T05:59:55.260Z,50.11
2023-05-14T06:00:55.258Z,38.03
2023-05-14T06:04:02.131Z,41.89
2023-05-14T06:05:02.187Z,45.44
2023-05-14T06:06:02.108Z,46.08
2023-05-14T06:07:02.076Z,45.60
2023-05-14T06:08:02.105Z,43.51
2023-05-14T06:09:02.961Z,41.89
2023-05-14T06:10:02.049Z,49.31
2023-05-14T06:11:03.146Z,53.82
2023-05-14T06:12:03.132Z,53.50
2023-05-14T06:13:03.138Z,49.63
2023-05-14T06:14:03.123Z,42.54
2023-05-14T06:15:03.095Z,46.08
2023-05-14T06:16:03.156Z,47.53
2023-05-14T06:17:03.107Z,48.18
2023-05-14T06:18:03.158Z,45.12
2023-05-14T06:19:03.244Z,46.73
2023-05-14T06:20:03.057Z,55.27
2023-05-14T06:21:03.060Z,44.15
2023-05-14T06:22:03.038Z,40.77
2023-05-14T06:23:03.043Z,39.64
2023-05-14T06:24:03.034Z,50.11
2023-05-14T06:25:03.010Z,49.31
2023-05-14T06:26:03.009Z,52.85
2023-05-14T06:27:02.993Z,48.18
2023-05-14T06:28:02.991Z,42.38
2023-05-14T06:29:02.985Z,43.34
2023-05-14T06:30:02.966Z,51.72
2023-05-14T06:31:02.950Z,51.40
2023-05-14T06:32:03.010Z,44.96
2023-05-14T06:33:02.997Z,46.25
2023-05-14T06:34:02.943Z,49.15
2023-05-14T06:35:02.951Z,53.01
2023-05-14T06:36:02.925Z,44.63
2023-05-14T06:37:02.936Z,42.54
2023-05-14T06:38:02.907Z,53.01
2023-05-14T06:39:02.892Z,52.53
2023-05-14T06:40:02.917Z,54.30
2023-05-14T06:41:02.875Z,47.70
2023-05-14T06:42:02.885Z,42.22
2023-05-14T06:43:03.552Z,42.70
2023-05-14T06:44:02.853Z,47.37
2023-05-14T06:45:02.853Z,50.27
2023-05-14T06:46:02.859Z,52.69
2023-05-14T06:47:02.840Z,49.95
2023-05-14T06:48:02.926Z,46.08
2023-05-14T06:49:02.862Z,52.85
2023-05-14T06:50:02.831Z,51.08
2023-05-14T06:51:02.812Z,51.40
2023-05-14T06:52:03.473Z,49.63
2023-05-14T06:53:02.786Z,52.37
2023-05-14T06:54:02.771Z,53.66
2023-05-14T06:55:02.765Z,47.21
2023-05-14T06:56:02.757Z,50.43
2023-05-14T06:57:02.742Z,45.12
2023-05-14T06:58:02.785Z,45.28
2023-05-14T06:59:02.747Z,46.25
2023-05-14T07:00:03.688Z,50.27
2023-05-14T07:01:03.764Z,51.72
2023-05-14T07:02:02.712Z,52.05
2023-05-14T07:03:02.776Z,58.01
2023-05-14T07:04:02.716Z,56.40
2023-05-14T07:05:02.696Z,55.59
2023-05-14T07:06:02.671Z,50.60
2023-05-14T07:07:02.669Z,55.91
2023-05-14T07:08:02.682Z,53.50
2023-05-14T07:09:02.657Z,49.95
2023-05-14T07:10:02.667Z,51.72
2023-05-14T07:11:02.657Z,50.11
2023-05-14T07:12:02.649Z,48.02
2023-05-14T07:13:02.618Z,50.76
2023-05-14T07:14:02.641Z,47.37
2023-05-14T07:15:02.640Z,44.79
2023-05-14T07:16:02.629Z,51.56
2023-05-14T07:17:02.603Z,51.72
2023-05-14T07:18:02.642Z,53.82
2023-05-14T07:19:02.607Z,50.76
2023-05-14T07:20:02.559Z,47.21
2023-05-14T07:21:02.583Z,51.40
2023-05-14T07:22:02.577Z,53.01
2023-05-14T07:23:02.586Z,55.11
2023-05-14T07:24:02.542Z,55.75
2023-05-14T07:25:02.521Z,46.41
2023-05-14T07:26:02.521Z,47.70
2023-05-14T07:27:02.534Z,45.92
2023-05-14T07:28:03.083Z,49.79
2023-05-14T07:29:03.499Z,53.50
2023-05-14T07:30:02.501Z,52.53
2023-05-14T07:31:02.524Z,46.89
2023-05-14T07:32:02.491Z,52.37
2023-05-14T07:33:02.481Z,50.43
2023-05-14T07:34:02.499Z,48.66
2023-05-14T07:35:02.451Z,50.60
2023-05-14T07:36:02.450Z,50.60
2023-05-14T07:37:02.460Z,54.14
2023-05-14T07:38:02.434Z,58.17
2023-05-14T07:39:02.432Z,54.95
2023-05-14T07:40:02.424Z,54.14
2023-05-14T07:41:02.408Z,53.50
2023-05-14T07:42:02.399Z,49.63
2023-05-14T07:43:02.394Z,47.21
2023-05-14T07:44:02.488Z,52.21
2023-05-14T07:45:02.420Z,56.07
2023-05-14T07:46:02.384Z,56.56
2023-05-14T07:47:02.392Z,51.40
2023-05-14T07:48:02.415Z,47.21
2023-05-14T07:49:02.356Z,57.04
2023-05-14T07:50:02.377Z,57.36
2023-05-14T07:51:02.344Z,51.56
2023-05-14T07:52:02.347Z,57.20
2023-05-14T07:53:02.321Z,57.52
2023-05-14T07:54:02.313Z,53.66
2023-05-14T07:55:02.309Z,55.59
2023-05-14T07:56:02.293Z,56.24
2023-05-14T07:57:02.322Z,56.56
2023-05-14T07:58:02.298Z,57.04
2023-05-14T07:59:03.092Z,54.30
2023-05-14T08:00:02.288Z,53.82
2023-05-14T08:01:02.265Z,57.20
2023-05-14T08:02:02.295Z,57.04
2023-05-14T08:03:02.401Z,53.98
2023-05-14T08:04:02.328Z,53.50
2023-05-14T08:05:02.230Z,56.40
2023-05-14T08:06:03.215Z,55.43
2023-05-14T08:07:02.215Z,54.79
2023-05-14T08:08:02.200Z,56.40
2023-05-14T08:09:02.189Z,53.33
2023-05-14T08:10:02.219Z,56.56
2023-05-14T08:11:02.268Z,57.20
2023-05-14T08:12:02.180Z,55.11
2023-05-14T08:13:02.166Z,56.07
2023-05-14T08:14:02.171Z,54.79
2023-05-14T08:15:02.219Z,57.85
2023-05-14T08:16:02.223Z,58.65
2023-05-14T08:17:02.309Z,58.33
2023-05-14T08:18:02.265Z,56.72
2023-05-14T08:19:03.056Z,56.40
2023-05-14T08:20:02.179Z,55.59
2023-05-14T08:21:03.518Z,57.20
2023-05-14T08:22:03.098Z,58.65
2023-05-14T08:23:02.097Z,58.17
2023-05-14T08:24:02.092Z,51.24
2023-05-14T08:25:02.083Z,57.69
2023-05-14T08:26:02.230Z,55.11
2023-05-14T08:27:02.054Z,54.46
2023-05-14T08:28:02.050Z,52.85
2023-05-14T08:29:02.044Z,56.56
2023-05-14T08:30:02.054Z,54.30
2023-05-14T08:31:02.019Z,55.27
2023-05-14T08:32:11.627Z,56.88
2023-05-14T08:33:04.015Z,50.76
2023-05-14T08:34:01.995Z,50.76
2023-05-14T08:35:01.992Z,56.88
2023-05-14T08:36:02.527Z,52.37
2023-05-14T08:37:01.990Z,52.05
2023-05-14T08:38:01.958Z,56.88
2023-05-14T08:39:01.954Z,53.98
2023-05-14T08:40:01.965Z,53.33
2023-05-14T08:41:01.934Z,48.82
2023-05-14T08:42:01.941Z,50.92
2023-05-14T08:43:01.924Z,52.53
2023-05-14T08:44:01.908Z,55.59
2023-05-14T08:45:01.912Z,54.14
2023-05-14T08:46:01.889Z,51.24
2023-05-14T08:47:01.891Z,55.43
2023-05-14T08:48:01.992Z,54.30
2023-05-14T08:49:01.898Z,56.07
2023-05-14T08:50:01.932Z,57.20
2023-05-14T08:51:01.896Z,49.79
2023-05-14T08:52:01.858Z,57.85
2023-05-14T08:53:01.834Z,54.95
2023-05-14T08:54:01.864Z,53.33
2023-05-14T08:55:01.837Z,55.11
2023-05-14T08:56:01.818Z,56.56
2023-05-14T08:57:01.818Z,54.79
2023-05-14T08:58:01.798Z,53.66
2023-05-14T08:59:01.807Z,54.46
2023-05-14T09:00:01.795Z,55.27
2023-05-14T09:01:01.791Z,48.50
2023-05-14T09:02:01.942Z,52.21
2023-05-14T09:03:01.796Z,54.79
2023-05-14T09:04:01.843Z,57.04
2023-05-14T09:05:02.571Z,57.85
2023-05-14T09:06:01.740Z,57.52
2023-05-14T09:07:01.725Z,55.91
2023-05-14T09:08:01.758Z,59.30
2023-05-14T09:09:01.703Z,56.07
2023-05-14T09:10:01.716Z,54.30
2023-05-14T09:11:01.696Z,58.17
2023-05-14T09:12:01.710Z,51.56
2023-05-14T09:13:02.536Z,57.69
2023-05-14T09:14:01.674Z,59.78
2023-05-14T09:15:01.670Z,57.69
2023-05-14T09:16:01.710Z,56.24
2023-05-14T09:17:01.645Z,57.36
2023-05-14T09:18:01.655Z,55.59
2023-05-14T09:19:01.662Z,54.14
2023-05-14T09:20:02.140Z,55.59
2023-05-14T09:21:01.617Z,55.43
2023-05-14T09:22:01.603Z,56.56
2023-05-14T09:23:02.618Z,57.20
2023-05-14T09:24:01.587Z,52.85
2023-05-14T09:25:02.116Z,56.56
2023-05-14T09:26:01.584Z,58.65
2023-05-14T09:27:01.580Z,56.88
2023-05-14T09:28:01.557Z,56.40
2023-05-14T09:29:01.560Z,51.40
2023-05-14T09:30:01.584Z,53.17
2023-05-14T09:31:01.589Z,56.40
2023-05-14T09:32:01.647Z,56.88
2023-05-14T09:33:01.570Z,54.30
2023-05-14T09:34:01.505Z,57.36
2023-05-14T09:35:01.495Z,55.91
2023-05-14T09:36:01.535Z,58.33
2023-05-14T09:37:01.543Z,57.52
2023-05-14T09:38:01.471Z,54.14
2023-05-14T09:39:01.467Z,54.30
2023-05-14T09:40:01.474Z,58.33
2023-05-14T09:41:01.456Z,59.46
2023-05-14T09:42:01.443Z,58.17
2023-05-14T09:43:01.436Z,54.79
2023-05-14T09:44:02.996Z,57.85
2023-05-14T09:45:01.432Z,56.56
2023-05-14T09:46:01.414Z,56.40
2023-05-14T09:47:02.064Z,57.85
2023-05-14T09:48:01.641Z,48.50
2023-05-14T09:49:01.388Z,55.59
2023-05-14T09:50:01.370Z,57.04
2023-05-14T09:51:02.750Z,60.42
2023-05-14T09:52:01.362Z,58.81
2023-05-14T09:53:02.056Z,57.36
2023-05-14T09:54:01.352Z,56.24
2023-05-14T09:55:01.391Z,53.17
2023-05-14T09:56:01.351Z,58.49
2023-05-14T09:57:01.314Z,56.07
2023-05-14T09:58:01.316Z,57.04
2023-05-14T09:59:01.321Z,55.27
2023-05-14T10:00:01.370Z,54.95
2023-05-14T10:01:01.302Z,53.01
2023-05-14T10:02:01.307Z,59.94
2023-05-14T10:03:01.306Z,60.10
2023-05-14T10:04:01.337Z,58.17
2023-05-14T10:05:01.262Z,56.88
2023-05-14T10:06:01.247Z,56.07
2023-05-14T10:07:01.244Z,54.14
2023-05-14T10:08:01.289Z,58.97
2023-05-14T10:09:01.228Z,56.40
2023-05-14T10:10:01.263Z,56.88
2023-05-14T10:11:02.152Z,58.33
2023-05-14T10:12:01.226Z,58.01
2023-05-14T10:13:01.182Z,57.36
2023-05-14T10:14:01.181Z,59.14
2023-05-14T10:15:01.185Z,57.85
2023-05-14T10:16:01.163Z,60.10
2023-05-14T10:17:01.182Z,60.91
2023-05-14T10:18:01.190Z,55.91
2023-05-14T10:19:01.200Z,56.24
2023-05-14T10:20:01.211Z,59.94
2023-05-14T10:21:02.066Z,60.10
2023-05-14T10:22:02.131Z,57.69
2023-05-14T10:23:01.135Z,59.30
2023-05-14T10:24:02.069Z,60.10
2023-05-14T10:25:01.108Z,59.62
2023-05-14T10:26:01.106Z,60.10
2023-05-14T10:27:01.097Z,53.66
2023-05-14T10:28:01.075Z,58.81
2023-05-14T10:29:01.064Z,60.10
2023-05-14T10:30:01.052Z,59.14
2023-05-14T10:31:01.150Z,53.82
2023-05-14T10:32:01.048Z,55.43
2023-05-14T10:33:01.083Z,59.14
2023-05-14T10:34:01.564Z,56.07
2023-05-14T10:35:01.033Z,55.75
2023-05-14T10:36:01.563Z,58.01
2023-05-14T10:37:00.994Z,58.17
2023-05-14T10:38:01.586Z,60.75
2023-05-14T10:39:00.976Z,55.43
2023-05-14T10:40:01.004Z,53.66
2023-05-14T10:41:00.972Z,58.33
2023-05-14T10:42:00.974Z,57.36
2023-05-14T10:43:00.953Z,56.88
2023-05-14T10:44:00.948Z,55.91
2023-05-14T10:45:00.934Z,53.98
2023-05-14T10:46:00.996Z,55.75
2023-05-14T10:47:01.007Z,53.98
2023-05-14T10:48:00.948Z,55.43
2023-05-14T10:49:00.912Z,58.49
2023-05-14T10:50:00.894Z,59.62
2023-05-14T10:51:00.942Z,56.24
2023-05-14T10:52:00.888Z,57.04
2023-05-14T10:53:00.867Z,57.52
2023-05-14T10:54:00.863Z,60.75
2023-05-14T10:55:03.180Z,57.36
2023-05-14T10:56:00.886Z,61.23
2023-05-14T10:57:00.851Z,55.11
2023-05-14T10:58:00.836Z,57.85
2023-05-14T10:59:00.855Z,53.50
2023-05-14T11:00:00.811Z,53.17
2023-05-14T11:01:00.820Z,58.33
2023-05-14T11:02:00.816Z,57.20
2023-05-14T11:03:00.820Z,53.01
2023-05-14T11:04:00.812Z,56.88
2023-05-14T11:05:01.656Z,58.65
2023-05-14T11:06:00.778Z,57.52
2023-05-14T11:07:00.762Z,57.36
2023-05-14T11:08:00.781Z,56.56
2023-05-14T11:09:00.750Z,56.40
2023-05-14T11:10:00.751Z,57.04
2023-05-14T11:11:02.681Z,60.26
2023-05-14T11:12:00.738Z,55.75
2023-05-14T11:13:00.729Z,55.75
2023-05-14T11:14:00.717Z,50.60
2023-05-14T11:15:00.707Z,57.20
2023-05-14T11:16:06.281Z,55.75
2023-05-14T11:17:02.710Z,59.46
2023-05-14T11:18:00.712Z,56.56
2023-05-14T11:19:00.794Z,54.62
2023-05-14T11:20:01.138Z,57.04
2023-05-14T11:21:00.723Z,57.20
2023-05-14T11:22:00.653Z,53.98
2023-05-14T11:23:00.670Z,59.14
2023-05-14T11:24:00.630Z,57.69
2023-05-14T11:25:00.628Z,57.20
2023-05-14T11:26:00.640Z,57.52
2023-05-14T11:27:00.662Z,53.33
2023-05-14T11:28:00.670Z,50.60
2023-05-14T11:29:00.662Z,55.27
2023-05-14T11:30:00.656Z,58.97
2023-05-14T11:31:00.576Z,58.17
2023-05-14T11:32:00.684Z,61.23
2023-05-14T11:33:02.034Z,55.75
2023-05-14T11:34:03.272Z,54.14
2023-05-14T11:35:00.582Z,56.72
2023-05-14T11:36:01.289Z,53.98
2023-05-14T11:37:00.522Z,57.04
2023-05-14T11:38:00.554Z,54.79
2023-05-14T11:39:00.534Z,54.46
2023-05-14T11:40:00.498Z,52.05
2023-05-14T11:41:00.492Z,50.92
2023-05-14T11:42:00.488Z,56.56
2023-05-14T11:43:00.540Z,50.92
2023-05-14T11:44:00.537Z,56.40
2023-05-14T11:45:00.553Z,55.43
2023-05-14T11:46:00.578Z,58.01
2023-05-14T11:47:00.452Z,54.14
2023-05-14T11:48:00.448Z,55.75
2023-05-14T11:49:00.437Z,57.04
2023-05-14T11:50:00.431Z,55.11
2023-05-14T11:51:00.441Z,57.52
2023-05-14T11:54:08.070Z,58.81
2023-05-14T11:55:08.048Z,57.04
2023-05-14T11:56:09.989Z,59.14
2023-05-14T11:57:10.120Z,55.91
2023-05-14T11:58:09.132Z,54.46
2023-05-14T11:59:09.110Z,55.11
2023-05-14T12:00:09.113Z,57.36
2023-05-14T12:01:09.095Z,56.07
2023-05-14T12:02:09.122Z,58.01
2023-05-14T12:03:09.136Z,57.20
2023-05-14T12:04:09.117Z,55.59
2023-05-14T12:05:09.136Z,54.79
2023-05-14T12:06:09.057Z,55.59
2023-05-14T12:07:09.053Z,54.95
2023-05-14T12:08:09.966Z,58.81
2023-05-14T12:09:09.072Z,58.01
2023-05-14T12:10:09.032Z,54.30
2023-05-14T12:11:09.005Z,57.04
2023-05-14T12:12:09.004Z,59.14
2023-05-14T12:13:09.005Z,56.40
2023-05-14T12:14:09.027Z,59.78
2023-05-14T12:15:09.985Z,56.72
2023-05-14T12:16:09.031Z,57.85
2023-05-14T12:17:08.956Z,60.26
2023-05-14T12:18:22.965Z,55.43
2023-05-14T12:19:10.997Z,57.52
2023-05-14T12:20:08.940Z,57.20
2023-05-14T12:21:08.931Z,59.14
2023-05-14T12:22:08.921Z,60.10
2023-05-14T12:23:08.911Z,60.91
2023-05-14T12:24:08.905Z,58.81
2023-05-14T12:25:08.902Z,58.97
2023-05-14T12:26:08.917Z,54.46
2023-05-14T12:27:08.894Z,52.21
2023-05-14T12:28:08.871Z,59.94
2023-05-14T12:29:08.935Z,62.04
2023-05-14T12:31:09.889Z,55.75
2023-05-14T12:32:08.853Z,59.30
2023-05-14T12:33:09.033Z,58.33
2023-05-14T12:34:09.475Z,60.10
2023-05-14T12:35:08.836Z,53.33
2023-05-14T12:37:09.808Z,56.56
2023-05-14T12:38:08.793Z,59.14
2023-05-14T12:39:08.811Z,56.88
2023-05-14T12:40:08.797Z,52.37
2023-05-14T12:41:08.778Z,58.17
2023-05-14T12:42:08.764Z,57.85
2023-05-14T12:43:08.756Z,58.81
2023-05-14T12:44:08.742Z,57.85
2023-05-14T12:45:08.952Z,57.69
2023-05-14T12:46:08.725Z,57.04
2023-05-14T12:47:08.835Z,55.27
2023-05-14T12:48:08.769Z,57.69
2023-05-14T12:49:08.713Z,55.75
2023-05-14T12:50:08.708Z,57.36
2023-05-14T12:51:08.693Z,56.40
2023-05-14T12:53:10.697Z,57.36
2023-05-14T12:54:08.671Z,59.62
2023-05-14T12:55:08.673Z,60.42
2023-05-14T12:56:08.655Z,60.59
2023-05-14T12:57:08.650Z,60.26
2023-05-14T12:58:08.674Z,57.52
2023-05-14T12:59:08.644Z,57.69
2023-05-14T13:00:10.285Z,59.62
2023-05-14T13:01:08.642Z,58.81
2023-05-14T13:02:08.601Z,60.10